Atlantis — PCDT — position and weather

sailwx.info

Track history (hours):
 
Tides and Currents Weather Stations Pressure Air Temp Water Temp Dewpoint Dewpoint Depression Visibility Wind Speed Wind Dir Waves Ship Positions

Atlantis (Netherlands)

Ship's website: http://www.tallship-company.com/artemis/gb_atlantis.htm

Last reported at 2014-Oct-01 17:33 UTC. Time now 2014-Oct-01 18:27 UTC.
Position N 39°27' W 000°20'.

Length 40 m; draft 4.5 m.

Type: Sailing vessel. MMSI: 246253000.

Date/timePositionNaut miles runAvg speedWind from/ knotsBaromVisibWave heightAir tempDewpointWater temp
2014-Oct-01 17:33N 39°27' W 000°20'0 0.0
2014-Oct-01 16:28N 39°27' W 000°20'0 0.0
2014-Oct-01 15:30N 39°27' W 000°20'0 0.0
2014-Oct-01 14:33N 39°27' W 000°20'0 0.0
2014-Oct-01 13:33N 39°27' W 000°20'0 0.0
2014-Oct-01 12:33N 39°27' W 000°20'0 0.0
2014-Oct-01 11:33N 39°27' W 000°20'75 4.4
2014-Sep-30 18:33N 38°58' E 001°10'10 1.1
2014-Sep-30 09:15N 38°49' E 001°17'5 4.4
2014-Sep-30 08:10N 38°47' E 001°22'3 4.6
2014-Sep-30 07:32N 38°45' E 001°25'1 0.1
2014-Sep-30 02:17N 38°45' E 001°26'0 0.0
2014-Sep-30 01:29N 38°45' E 001°26'0 0.0
2014-Sep-30 00:33N 38°45' E 001°26'0 0.0
2014-Sep-29 23:32N 38°45' E 001°26'0 0.0
2014-Sep-29 22:06N 38°45' E 001°26'0 0.0
2014-Sep-29 20:08N 38°45' E 001°26'0 0.0
2014-Sep-29 18:30N 38°45' E 001°26'0 0.0
2014-Sep-29 17:25N 38°45' E 001°26'0 0.0
2014-Sep-29 16:33N 38°45' E 001°26'0 0.0
2014-Sep-29 15:33N 38°45' E 001°26'8 0.3
2014-Sep-28 10:16N 38°51' E 001°19'5 5.2
2014-Sep-28 09:24N 38°50' E 001°25'2 0.1
2014-Sep-27 15:31N 38°52' E 001°25'4 3.8
2014-Sep-27 14:26N 38°50' E 001°21'3 0.1
2014-Sep-26 09:08N 38°49' E 001°17'8 0.6
2014-Sep-25 20:09N 38°45' E 001°26'3 0.3
2014-Sep-25 12:07N 38°47' E 001°25'4 5.9
2014-Sep-25 11:23N 38°52' E 001°25'1 0.0
2014-Sep-23 18:27N 38°53' E 001°25'6 0.6
2014-Sep-23 08:25N 38°46' E 001°26'0 0.0
2014-Sep-23 01:19N 38°46' E 001°26'3 0.3
2014-Sep-22 12:26N 38°47' E 001°30'3 3.8
2014-Sep-22 11:32N 38°48' E 001°34'6 6.6
2014-Sep-22 10:33N 38°55' E 001°36'6 5.8
2014-Sep-22 09:32N 39°00' E 001°37'6 6.0
2014-Sep-22 08:33N 39°06' E 001°36'5 4.5
2014-Sep-22 07:33N 39°06' E 001°30'0 0.0
2014-Sep-22 06:23N 39°06' E 001°30'0 0.0
2014-Sep-22 04:29N 39°06' E 001°30'0 0.0
2014-Sep-22 02:17N 39°06' E 001°30'0 0.0
2014-Sep-22 01:23N 39°06' E 001°30'0 0.0
2014-Sep-22 00:17N 39°06' E 001°30'0 0.0
2014-Sep-21 22:26N 39°06' E 001°30'1 1.4
2014-Sep-21 21:33N 39°07' E 001°31'6 6.2
2014-Sep-21 20:33N 39°11' E 001°37'6 6.3
2014-Sep-21 19:33N 39°14' E 001°44'6 6.5
2014-Sep-21 18:33N 39°18' E 001°51'  
Track history (hours):
 
Tides and Currents Weather Stations Pressure Air Temp Water Temp Dewpoint Dewpoint Depression Visibility Wind Speed Wind Dir Waves Ship Positions

Atlantis (Netherlands)

Ship's website: http://www.tallship-company.com/artemis/gb_atlantis.htm

Last reported at 2014-Oct-01 17:33 UTC. Time now 2014-Oct-01 18:27 UTC.
Position N 39°27' W 000°20'.

Length 40 m; draft 4.5 m.

Type: Sailing vessel. MMSI: 246253000.

Date/timePositionNaut miles runAvg speedWind from/ knotsBaromVisibWave heightAir tempDewpointWater temp
2014-Oct-01 17:33N 39°27' W 000°20'0 0.0
2014-Oct-01 16:28N 39°27' W 000°20'0 0.0
2014-Oct-01 15:30N 39°27' W 000°20'0 0.0
2014-Oct-01 14:33N 39°27' W 000°20'0 0.0
2014-Oct-01 13:33N 39°27' W 000°20'0 0.0
2014-Oct-01 12:33N 39°27' W 000°20'0 0.0
2014-Oct-01 11:33N 39°27' W 000°20'75 4.4
2014-Sep-30 18:33N 38°58' E 001°10'10 1.1
2014-Sep-30 09:15N 38°49' E 001°17'5 4.4
2014-Sep-30 08:10N 38°47' E 001°22'3 4.6
2014-Sep-30 07:32N 38°45' E 001°25'1 0.1
2014-Sep-30 02:17N 38°45' E 001°26'0 0.0
2014-Sep-30 01:29N 38°45' E 001°26'0 0.0
2014-Sep-30 00:33N 38°45' E 001°26'0 0.0
2014-Sep-29 23:32N 38°45' E 001°26'0 0.0
2014-Sep-29 22:06N 38°45' E 001°26'0 0.0
2014-Sep-29 20:08N 38°45' E 001°26'0 0.0
2014-Sep-29 18:30N 38°45' E 001°26'0 0.0
2014-Sep-29 17:25N 38°45' E 001°26'0 0.0
2014-Sep-29 16:33N 38°45' E 001°26'0 0.0
2014-Sep-29 15:33N 38°45' E 001°26'8 0.3
2014-Sep-28 10:16N 38°51' E 001°19'5 5.2
2014-Sep-28 09:24N 38°50' E 001°25'2 0.1
2014-Sep-27 15:31N 38°52' E 001°25'4 3.8
2014-Sep-27 14:26N 38°50' E 001°21'3 0.1
2014-Sep-26 09:08N 38°49' E 001°17'8 0.6
2014-Sep-25 20:09N 38°45' E 001°26'3 0.3
2014-Sep-25 12:07N 38°47' E 001°25'4 5.9
2014-Sep-25 11:23N 38°52' E 001°25'1 0.0
2014-Sep-23 18:27N 38°53' E 001°25'6 0.6
2014-Sep-23 08:25N 38°46' E 001°26'0 0.0
2014-Sep-23 01:19N 38°46' E 001°26'3 0.3
2014-Sep-22 12:26N 38°47' E 001°30'3 3.8
2014-Sep-22 11:32N 38°48' E 001°34'6 6.6
2014-Sep-22 10:33N 38°55' E 001°36'6 5.8
2014-Sep-22 09:32N 39°00' E 001°37'6 6.0
2014-Sep-22 08:33N 39°06' E 001°36'5 4.5
2014-Sep-22 07:33N 39°06' E 001°30'0 0.0
2014-Sep-22 06:23N 39°06' E 001°30'0 0.0
2014-Sep-22 04:29N 39°06' E 001°30'0 0.0
2014-Sep-22 02:17N 39°06' E 001°30'0 0.0
2014-Sep-22 01:23N 39°06' E 001°30'0 0.0
2014-Sep-22 00:17N 39°06' E 001°30'0 0.0
2014-Sep-21 22:26N 39°06' E 001°30'1 1.4
2014-Sep-21 21:33N 39°07' E 001°31'6 6.2
2014-Sep-21 20:33N 39°11' E 001°37'6 6.3
2014-Sep-21 19:33N 39°14' E 001°44'6 6.5
2014-Sep-21 18:33N 39°18' E 001°51'  

Dump ship's entire track history